Terminal Aerodrome Forecast
Issued by NWS Boston, MA

Home | Current Version | Previous Version | Text Only | Print | Product List | Glossary On
Versions: 1 2 3 4 5 6 7 8 9 10 11 12 13 14 15 16 17 18 19 20 21 22 23
000
FTUS41 KBOX 231132 AAB
TAFPVD
TAF AMD
KPVD 231132Z 2312/2412 04014KT 6SM -SHRADZ OVC020
     FM231600 06016G32KT P6SM -SHRADZ OVC015
     FM232300 06019G40KT P6SM -SHRAPL OVC015
     FM240300 05022G41KT 2SM RA OVC008
     FM240600 04026G40KT 1 1/2SM +RA OVC005
     FM241000 04017G30KT 2SM +RA OVC005=

USA.gov is the U.S. government's official web portal to all federal, state and local government web resources and services.